createdAt,value
2023-03-29T00:01:35.413Z,101703.91
2023-03-29T00:04:04.549Z,101716.31
2023-03-29T00:06:33.072Z,101711.53
2023-03-29T00:09:00.458Z,101703.25
2023-03-29T00:11:27.392Z,101699.53
2023-03-29T00:13:54.228Z,101697.03
2023-03-29T00:16:20.855Z,101699.09
2023-03-29T00:18:47.649Z,101698.69
2023-03-29T00:21:14.170Z,101698.44
2023-03-29T00:23:40.755Z,101694.09
2023-03-29T00:26:08.334Z,101685.22
2023-03-29T00:28:35.404Z,101683.56
2023-03-29T00:31:08.195Z,101673.41
2023-03-29T00:33:34.680Z,101662.03
2023-03-29T00:36:01.898Z,101659.09
2023-03-29T00:38:28.587Z,101660.16
2023-03-29T00:40:54.991Z,101661.41
2023-03-29T00:43:21.519Z,101651.47
2023-03-29T00:45:48.116Z,101652.75
2023-03-29T00:48:24.397Z,101648.16
2023-03-29T00:50:56.202Z,101641.97
2023-03-29T00:53:28.451Z,101638.25
2023-03-29T00:56:07.417Z,101638.84
2023-03-29T00:58:43.519Z,101643.19
2023-03-29T01:01:17.557Z,101632.41
2023-03-29T01:03:50.136Z,101628.69
2023-03-29T01:06:19.480Z,101623.91
2023-03-29T01:09:01.327Z,101619.34
2023-03-29T01:11:32.427Z,101613.72
2023-03-29T01:14:05.556Z,101606.25
2023-03-29T01:16:35.132Z,101604.16
2023-03-29T01:19:02.228Z,101595.03
2023-03-29T01:21:39.725Z,101602.47
2023-03-29T01:24:45.487Z,101598.50
2023-03-29T01:27:31.786Z,101604.94
2023-03-29T01:30:05.505Z,101600.75
2023-03-29T01:32:38.876Z,101596.41
2023-03-29T01:35:15.900Z,101604.09
2023-03-29T01:38:05.482Z,101602.00
2023-03-29T01:40:33.653Z,101599.31
2023-03-29T01:43:34.856Z,101594.53
2023-03-29T01:46:08.092Z,101593.28
2023-03-29T01:48:49.936Z,101581.81
2023-03-29T01:51:24.767Z,101586.16
2023-03-29T01:54:03.697Z,101584.09
2023-03-29T01:56:36.873Z,101571.00
2023-03-29T01:59:08.274Z,101581.53
2023-03-29T02:01:40.410Z,101574.06
2023-03-29T02:04:13.141Z,101575.72
2023-03-29T02:06:41.725Z,101565.34
2023-03-29T02:09:09.068Z,101566.16
2023-03-29T02:11:36.174Z,101564.06
2023-03-29T02:14:02.743Z,101565.09
2023-03-29T02:16:29.191Z,101562.19
2023-03-29T02:18:57.659Z,101558.66
2023-03-29T02:21:51.781Z,101557.03
2023-03-29T02:24:20.649Z,101551.63
2023-03-29T02:26:48.077Z,101556.81
2023-03-29T02:29:15.120Z,101545.19
2023-03-29T02:31:48.929Z,101547.28
2023-03-29T02:34:28.429Z,101545.19
2023-03-29T02:37:00.214Z,101542.94
2023-03-29T02:39:28.965Z,101544.16
2023-03-29T02:41:56.757Z,101537.72
2023-03-29T02:44:27.780Z,101535.25
2023-03-29T02:46:58.616Z,101538.75
2023-03-29T02:49:25.333Z,101542.06
2023-03-29T02:51:56.073Z,101531.28
2023-03-29T02:54:25.934Z,101530.47
2023-03-29T02:57:01.064Z,101527.53
2023-03-29T02:59:29.941Z,101522.75
2023-03-29T03:01:56.636Z,101522.75
2023-03-29T03:04:23.137Z,101516.31
2023-03-29T03:06:49.756Z,101523.34
2023-03-29T03:09:16.705Z,101530.38
2023-03-29T03:11:43.122Z,101525.00
2023-03-29T03:14:09.768Z,101511.97
2023-03-29T03:16:37.144Z,101507.41
2023-03-29T03:19:03.835Z,101497.69
2023-03-29T03:21:30.320Z,101493.13
2023-03-29T03:23:56.945Z,101493.91
2023-03-29T03:26:24.981Z,101492.31
2023-03-29T03:28:51.390Z,101497.69
2023-03-29T03:31:17.797Z,101491.03
2023-03-29T03:33:44.734Z,101493.13
2023-03-29T03:36:11.430Z,101500.16
2023-03-29T03:38:38.516Z,101493.34
2023-03-29T03:41:06.980Z,101489.81
2023-03-29T03:43:34.119Z,101494.16
2023-03-29T03:46:01.457Z,101493.13
2023-03-29T03:48:27.955Z,101494.16
2023-03-29T03:50:59.123Z,101495.56
2023-03-29T03:53:27.271Z,101497.22
2023-03-29T03:55:55.963Z,101495.13
2023-03-29T03:58:23.361Z,101500.50
2023-03-29T04:00:50.935Z,101493.72
2023-03-29T04:03:18.454Z,101484.59
2023-03-29T04:05:47.077Z,101495.97
2023-03-29T04:08:14.890Z,101492.66
2023-03-29T04:10:42.045Z,101484.59
2023-03-29T04:13:08.513Z,101488.09
2023-03-29T04:15:41.354Z,101491.03
2023-03-29T04:18:07.875Z,101495.38
2023-03-29T04:20:34.637Z,101485.63
2023-03-29T04:23:01.533Z,101476.50
2023-03-29T04:25:28.468Z,101485.63
2023-03-29T04:27:54.958Z,101477.09
2023-03-29T04:30:21.822Z,101482.50
2023-03-29T04:32:48.740Z,101474.41
2023-03-29T04:35:15.257Z,101472.75
2023-03-29T04:37:41.856Z,101472.75
2023-03-29T04:40:09.869Z,101466.09
2023-03-29T04:42:37.434Z,101457.19
2023-03-29T04:45:06.923Z,101457.78
2023-03-29T04:47:36.254Z,101466.69
2023-03-29T04:50:03.806Z,101466.47
2023-03-29T04:52:33.182Z,101457.78
2023-03-29T04:55:04.439Z,101457.78
2023-03-29T04:57:31.004Z,101459.19
2023-03-29T04:59:57.477Z,101453.00
2023-03-29T05:02:24.121Z,101461.69
2023-03-29T05:04:50.633Z,101463.53
2023-03-29T05:07:18.184Z,101462.47
2023-03-29T05:09:44.549Z,101450.66
2023-03-29T05:12:11.100Z,101453.59
2023-03-29T05:14:37.547Z,101446.56
2023-03-29T05:17:05.056Z,101449.25
2023-03-29T05:19:31.991Z,101441.16
2023-03-29T05:21:59.085Z,101447.38
2023-03-29T05:24:25.746Z,101451.50
2023-03-29T05:26:52.375Z,101450.44
2023-03-29T05:29:19.042Z,101445.66
2023-03-29T05:31:45.825Z,101451.03
2023-03-29T05:34:12.221Z,101452.69
2023-03-29T05:36:39.164Z,101458.06
2023-03-29T05:39:06.446Z,101460.91
2023-03-29T05:41:33.643Z,101460.91
2023-03-29T05:44:00.008Z,101464.19
2023-03-29T05:46:26.968Z,101462.56
2023-03-29T05:48:53.596Z,101454.22
2023-03-29T05:51:24.108Z,101455.06
2023-03-29T05:53:51.440Z,101456.25
2023-03-29T05:56:18.998Z,101457.91
2023-03-29T05:58:49.478Z,101468.69
2023-03-29T06:01:18.134Z,101461.66
2023-03-29T06:03:48.088Z,101459.53
2023-03-29T06:06:16.405Z,101462.84
2023-03-29T06:08:43.805Z,101458.25
2023-03-29T06:11:13.222Z,101467.78
2023-03-29T06:13:40.067Z,101462.38
2023-03-29T06:16:10.765Z,101455.09
2023-03-29T06:18:40.236Z,101463.56
2023-03-29T06:21:09.164Z,101459.81
2023-03-29T06:23:36.452Z,101459.38
2023-03-29T06:26:05.612Z,101465.94
2023-03-29T06:28:32.148Z,101462.19
2023-03-29T06:31:02.923Z,101469.25
2023-03-29T06:33:32.413Z,101465.00
2023-03-29T06:35:58.997Z,101464.78
2023-03-29T06:38:28.048Z,101467.03
2023-03-29T06:41:05.974Z,101471.72
2023-03-29T06:43:33.448Z,101459.41
2023-03-29T06:46:00.655Z,101458.94
2023-03-29T06:48:27.233Z,101464.72
2023-03-29T06:50:54.565Z,101465.06
2023-03-29T06:53:22.094Z,101465.44
2023-03-29T06:55:50.699Z,101466.63
2023-03-29T06:58:17.087Z,101464.28
2023-03-29T07:00:43.465Z,101468.16
2023-03-29T07:03:13.346Z,101473.94
2023-03-29T07:05:42.045Z,101472.41
2023-03-29T07:08:08.669Z,101474.41
2023-03-29T07:10:41.232Z,101479.91
2023-03-29T07:13:12.211Z,101481.09
2023-03-29T07:15:43.254Z,101469.97
2023-03-29T07:18:10.402Z,101469.03
2023-03-29T07:20:38.751Z,101467.50
2023-03-29T07:23:06.769Z,101471.13
2023-03-29T07:25:33.905Z,101473.13
2023-03-29T07:28:00.315Z,101469.97
2023-03-29T07:30:31.973Z,101467.00
2023-03-29T07:32:59.145Z,101464.69
2023-03-29T07:35:26.815Z,101474.16
2023-03-29T07:37:54.934Z,101475.81
2023-03-29T07:40:23.636Z,101477.19
2023-03-29T07:42:56.433Z,101474.03
2023-03-29T07:45:26.446Z,101473.56
2023-03-29T07:47:56.484Z,101479.06
2023-03-29T07:50:23.120Z,101476.75
2023-03-29T07:52:50.131Z,101485.44
2023-03-29T07:55:17.032Z,101481.19
2023-03-29T07:57:44.179Z,101480.25
2023-03-29T08:00:16.154Z,101480.56
2023-03-29T08:02:44.678Z,101475.53
2023-03-29T08:05:13.637Z,101475.38
2023-03-29T08:07:44.622Z,101477.59
2023-03-29T08:10:13.774Z,101476.91
2023-03-29T08:12:41.992Z,101472.91
2023-03-29T08:15:09.428Z,101478.91
2023-03-29T08:17:36.230Z,101483.56
2023-03-29T08:20:04.173Z,101481.22
2023-03-29T08:22:32.240Z,101486.16
2023-03-29T08:24:58.987Z,101477.78
2023-03-29T08:27:25.883Z,101488.97
2023-03-29T08:29:52.277Z,101479.31
2023-03-29T08:32:18.641Z,101470.47
2023-03-29T08:34:45.193Z,101466.22
2023-03-29T08:37:11.621Z,101459.03
2023-03-29T08:39:38.531Z,101458.06
2023-03-29T08:42:24.103Z,101452.16
2023-03-29T08:45:06.258Z,101459.28
2023-03-29T08:47:47.728Z,101457.97
2023-03-29T08:50:15.092Z,101451.00
2023-03-29T08:52:46.733Z,101456.75
2023-03-29T08:55:37.959Z,101454.88
2023-03-29T08:58:07.924Z,101460.03
2023-03-29T09:00:42.889Z,101472.00
2023-03-29T09:03:31.646Z,101486.69
2023-03-29T09:06:04.754Z,101481.28
2023-03-29T09:08:31.619Z,101472.09
2023-03-29T09:11:16.462Z,101481.38
2023-03-29T09:13:56.884Z,101480.28
2023-03-29T09:16:33.402Z,101476.28
2023-03-29T09:19:39.342Z,101474.97
2023-03-29T09:22:14.091Z,101474.47
2023-03-29T09:25:11.404Z,101473.69
2023-03-29T09:27:58.131Z,101469.41
2023-03-29T09:30:27.477Z,101481.13
2023-03-29T09:33:17.085Z,101462.50
2023-03-29T09:35:52.876Z,101464.47
2023-03-29T09:38:22.104Z,101461.34
2023-03-29T09:40:54.984Z,101470.69
2023-03-29T09:43:31.952Z,101470.00
2023-03-29T09:46:03.511Z,101480.34
2023-03-29T09:48:34.526Z,101463.09
2023-03-29T09:51:02.337Z,101470.00
2023-03-29T09:53:28.970Z,101471.13
2023-03-29T09:55:55.776Z,101465.75
2023-03-29T09:58:31.667Z,101471.81
2023-03-29T10:01:00.030Z,101473.22
2023-03-29T10:03:31.801Z,101463.69
2023-03-29T10:06:00.267Z,101470.75
2023-03-29T10:08:36.524Z,101478.94
2023-03-29T10:11:14.735Z,101476.31
2023-03-29T10:13:50.593Z,101473.66
2023-03-29T10:16:23.061Z,101467.22
2023-03-29T10:18:50.363Z,101469.53
2023-03-29T10:21:22.079Z,101462.84
2023-03-29T10:23:49.838Z,101459.41
2023-03-29T10:26:29.332Z,101451.91
2023-03-29T10:28:57.390Z,101454.91
2023-03-29T10:31:25.053Z,101451.13
2023-03-29T10:33:54.653Z,101452.25
2023-03-29T10:36:23.140Z,101452.56
2023-03-29T10:38:52.081Z,101454.78
2023-03-29T10:41:21.771Z,101450.41
2023-03-29T10:43:51.090Z,101448.22
2023-03-29T10:46:23.666Z,101446.31
2023-03-29T10:48:59.002Z,101449.59
2023-03-29T10:51:30.084Z,101434.13
2023-03-29T10:54:01.425Z,101443.97
2023-03-29T10:56:41.521Z,101437.00
2023-03-29T10:59:24.194Z,101438.13
2023-03-29T11:02:15.719Z,101426.75
2023-03-29T11:05:09.061Z,101418.59
2023-03-29T11:07:45.075Z,101427.53
2023-03-29T11:10:47.650Z,101422.38
2023-03-29T11:13:19.970Z,101427.22
2023-03-29T11:16:08.424Z,101429.00
2023-03-29T11:18:53.822Z,101426.50
2023-03-29T11:21:47.026Z,101422.09
2023-03-29T11:24:27.745Z,101419.06
2023-03-29T11:27:15.980Z,101415.50
2023-03-29T11:29:53.452Z,101416.31
2023-03-29T11:32:38.140Z,101417.13
2023-03-29T11:35:23.523Z,101418.50
2023-03-29T11:37:49.854Z,101413.41
2023-03-29T11:40:39.299Z,101409.66
2023-03-29T11:43:20.385Z,101420.00
2023-03-29T11:45:53.848Z,101418.59
2023-03-29T11:48:24.849Z,101411.31
2023-03-29T11:50:58.732Z,101417.03
2023-03-29T11:53:48.989Z,101415.47
2023-03-29T11:56:24.001Z,101408.72
2023-03-29T11:58:56.587Z,101418.00
2023-03-29T12:01:33.438Z,101423.16
2023-03-29T12:04:07.761Z,101428.91
2023-03-29T12:06:53.350Z,101430.00
2023-03-29T12:09:28.841Z,101420.78
2023-03-29T12:12:09.513Z,101425.94
2023-03-29T12:14:49.217Z,101413.19
2023-03-29T12:17:23.062Z,101423.53
2023-03-29T12:20:04.474Z,101411.88
2023-03-29T12:22:32.378Z,101408.88
2023-03-29T12:25:00.174Z,101399.94
2023-03-29T12:27:46.857Z,101397.25
2023-03-29T12:30:46.521Z,101400.53
2023-03-29T12:33:43.619Z,101402.38
2023-03-29T12:36:31.475Z,101401.81
2023-03-29T12:38:58.281Z,101402.31
2023-03-29T12:41:25.051Z,101392.25
2023-03-29T12:43:51.591Z,101399.28
2023-03-29T12:46:26.743Z,101399.78
2023-03-29T12:49:06.062Z,101407.09
2023-03-29T12:51:34.579Z,101401.91
2023-03-29T12:54:15.048Z,101400.03
2023-03-29T12:56:53.998Z,101383.41
2023-03-29T12:59:44.330Z,101366.34
2023-03-29T13:02:22.729Z,101356.28
2023-03-29T13:04:57.941Z,101356.59
2023-03-29T13:07:26.338Z,101341.97
2023-03-29T13:09:58.467Z,101338.16
2023-03-29T13:12:30.792Z,101343.06
2023-03-29T13:15:26.901Z,101341.72
2023-03-29T13:18:03.813Z,101334.97
2023-03-29T13:20:52.021Z,101318.72
2023-03-29T13:24:00.743Z,101326.91
2023-03-29T13:26:53.988Z,101306.84
2023-03-29T13:29:37.353Z,101314.75
2023-03-29T13:32:36.577Z,101301.97
2023-03-29T13:35:38.604Z,101302.28
2023-03-29T13:38:16.303Z,101302.56
2023-03-29T13:40:47.637Z,101306.66
2023-03-29T13:43:20.167Z,101319.97
2023-03-29T13:45:58.762Z,101315.09
2023-03-29T13:48:29.604Z,101305.88
2023-03-29T13:51:00.895Z,101309.16
2023-03-29T13:53:49.620Z,101308.06
2023-03-29T13:56:23.078Z,101306.47
2023-03-29T13:58:53.910Z,101299.41
2023-03-29T14:01:39.053Z,101290.72
2023-03-29T14:04:12.902Z,101278.50
2023-03-29T14:06:42.805Z,101271.44
2023-03-29T14:09:12.788Z,101260.34
2023-03-29T14:11:45.030Z,101263.88
2023-03-29T14:14:11.596Z,101263.91
2023-03-29T14:16:40.088Z,101258.22
2023-03-29T14:19:15.312Z,101257.38
2023-03-29T14:21:42.570Z,101251.94
2023-03-29T14:24:20.702Z,101257.13
2023-03-29T14:26:47.923Z,101260.66
2023-03-29T14:29:15.076Z,101253.88
2023-03-29T14:31:42.489Z,101249.81
2023-03-29T14:34:18.767Z,101242.50
2023-03-29T14:36:46.874Z,101246.88
2023-03-29T14:39:20.984Z,101238.16
2023-03-29T14:41:55.397Z,101234.91
2023-03-29T14:44:26.114Z,101221.28
2023-03-29T14:46:53.712Z,101222.13
2023-03-29T14:49:22.920Z,101214.75
2023-03-29T14:51:50.265Z,101220.19
2023-03-29T14:54:20.903Z,101215.84
2023-03-29T14:56:48.731Z,101206.59
2023-03-29T14:59:49.674Z,101200.06
2023-03-29T15:02:33.462Z,101195.44
2023-03-29T15:05:05.794Z,101200.06
2023-03-29T15:07:34.563Z,101195.44
2023-03-29T15:10:03.120Z,101189.16
2023-03-29T15:12:30.880Z,101186.44
2023-03-29T15:14:58.198Z,101175.53
2023-03-29T15:17:43.026Z,101176.06
2023-03-29T15:20:21.508Z,101171.16
2023-03-29T15:23:16.959Z,101167.34
2023-03-29T15:25:50.426Z,101171.72
2023-03-29T15:28:34.855Z,101170.88
2023-03-29T15:33:34.828Z,101161.06
2023-03-29T15:36:03.420Z,101152.91
2023-03-29T15:38:42.622Z,101154.81
2023-03-29T15:41:10.768Z,101151.00
2023-03-29T15:43:37.447Z,101147.75
2023-03-29T15:46:04.322Z,101148.53
2023-03-29T15:48:33.664Z,101139.03
2023-03-29T15:51:04.560Z,101135.78
2023-03-29T15:53:32.708Z,101140.94
2023-03-29T15:56:02.478Z,101130.88
2023-03-29T15:58:31.818Z,101127.63
2023-03-29T16:01:00.708Z,101124.91
2023-03-29T16:03:27.356Z,101114.81
2023-03-29T16:05:56.836Z,101103.13
2023-03-29T16:08:25.076Z,101111.81
2023-03-29T16:10:51.719Z,101106.91
2023-03-29T16:13:18.197Z,101098.75
2023-03-29T16:15:45.768Z,101086.22
2023-03-29T16:18:12.156Z,101078.06
2023-03-29T16:20:38.904Z,101069.91
2023-03-29T16:23:09.728Z,101071.00
2023-03-29T16:25:38.347Z,101061.19
2023-03-29T16:28:05.621Z,101059.28
2023-03-29T16:30:32.626Z,101056.56
2023-03-29T16:32:59.196Z,101054.91
2023-03-29T16:35:28.745Z,101053.28
2023-03-29T16:37:55.379Z,101038.06
2023-03-29T16:40:21.850Z,101037.53
2023-03-29T16:42:48.386Z,101029.66
2023-03-29T16:45:15.535Z,101025.56
2023-03-29T16:47:44.357Z,101018.78
2023-03-29T16:50:19.754Z,101005.75
2023-03-29T16:52:47.890Z,101021.84
2023-03-29T16:55:15.698Z,101025.91
2023-03-29T16:57:42.676Z,101030.81
2023-03-29T17:00:11.238Z,101025.38
2023-03-29T17:02:37.797Z,101024.56
2023-03-29T17:05:04.469Z,101011.22
2023-03-29T17:07:30.956Z,101012.31
2023-03-29T17:09:57.423Z,101018.06
2023-03-29T17:12:24.060Z,101021.88
2023-03-29T17:14:51.304Z,101011.25
2023-03-29T17:17:17.724Z,101026.47
2023-03-29T17:19:44.209Z,101010.72
2023-03-29T17:22:10.697Z,101009.09
2023-03-29T17:24:37.072Z,101002.03
2023-03-29T17:27:03.566Z,101000.41
2023-03-29T17:29:30.106Z,101008.00
2023-03-29T17:31:56.551Z,100996.59
2023-03-29T17:34:23.174Z,100993.88
2023-03-29T17:36:53.244Z,100993.88
2023-03-29T17:39:19.699Z,100992.25
2023-03-29T17:41:47.240Z,100978.13
2023-03-29T17:44:13.837Z,100978.94
2023-03-29T17:46:40.316Z,100971.03
2023-03-29T17:49:07.248Z,100969.41
2023-03-29T17:51:33.628Z,100958.00
2023-03-29T17:54:00.175Z,100962.91
2023-03-29T17:56:26.634Z,100968.63
2023-03-29T17:58:53.475Z,100966.19
2023-03-29T18:01:20.336Z,100957.50
2023-03-29T18:03:50.464Z,100959.69
2023-03-29T18:06:20.171Z,100959.97
2023-03-29T18:08:47.305Z,100960.53
2023-03-29T18:11:17.208Z,100954.81
2023-03-29T18:13:44.753Z,100958.66
2023-03-29T18:16:11.442Z,100952.69
2023-03-29T18:18:38.613Z,100954.84
2023-03-29T18:21:06.935Z,100952.69
2023-03-29T18:23:33.814Z,100949.69
2023-03-29T18:26:02.798Z,100953.81
2023-03-29T18:28:30.574Z,100955.97
2023-03-29T18:30:57.212Z,100943.16
2023-03-29T18:33:24.440Z,100943.47
2023-03-29T18:35:51.856Z,100935.31
2023-03-29T18:38:22.415Z,100934.78
2023-03-29T18:40:50.510Z,100933.16
2023-03-29T18:43:17.017Z,100926.09
2023-03-29T18:45:44.489Z,100925.25
2023-03-29T18:48:11.074Z,100933.72
2023-03-29T18:50:37.621Z,100930.44
2023-03-29T18:53:04.445Z,100944.28
2023-03-29T18:55:31.097Z,100941.88
2023-03-29T18:57:57.465Z,100934.25
2023-03-29T19:00:23.938Z,100934.25
2023-03-29T19:02:50.601Z,100918.22
2023-03-29T19:05:17.043Z,100923.94
2023-03-29T19:07:43.512Z,100929.94
2023-03-29T19:10:10.223Z,100938.06
2023-03-29T19:12:36.757Z,100934.81
2023-03-29T19:15:03.526Z,100930.47
2023-03-29T19:17:30.102Z,100919.06
2023-03-29T19:19:56.760Z,100915.81
2023-03-29T19:22:23.356Z,100918.78
2023-03-29T19:24:49.820Z,100926.13
2023-03-29T19:27:16.585Z,100917.44
2023-03-29T19:29:42.989Z,100918.00
2023-03-29T19:32:09.425Z,100916.38
2023-03-29T19:34:36.189Z,100915.03
2023-03-29T19:37:02.645Z,100904.94
2023-03-29T19:39:29.804Z,100891.91
2023-03-29T19:41:56.588Z,100883.22
2023-03-29T19:44:26.034Z,100878.88
2023-03-29T19:46:52.532Z,100872.66
2023-03-29T19:49:19.175Z,100859.88
2023-03-29T19:51:45.620Z,100857.44
2023-03-29T19:54:13.228Z,100851.72
2023-03-29T19:56:40.633Z,100852.25
2023-03-29T19:59:08.900Z,100850.06
2023-03-29T20:01:37.493Z,100844.94
2023-03-29T20:04:04.670Z,100843.81
2023-03-29T20:06:31.073Z,100835.41
2023-03-29T20:08:58.654Z,100830.75
2023-03-29T20:11:25.167Z,100826.94
2023-03-29T20:13:51.582Z,100825.06
2023-03-29T20:16:19.153Z,100818.81
2023-03-29T20:18:46.500Z,100814.72
2023-03-29T20:21:16.564Z,100810.09
2023-03-29T20:23:43.369Z,100805.50
2023-03-29T20:26:10.507Z,100810.94
2023-03-29T20:28:37.649Z,100810.09
2023-03-29T20:31:06.826Z,100808.47
2023-03-29T20:33:33.552Z,100793.25
2023-03-29T20:36:02.993Z,100788.38
2023-03-29T20:38:29.461Z,100775.59
2023-03-29T20:40:55.863Z,100766.38
2023-03-29T20:43:22.637Z,100759.53
2023-03-29T20:46:14.799Z,100753.31
2023-03-29T20:48:54.062Z,100745.97
2023-03-29T20:51:22.246Z,100738.06
2023-03-29T20:53:48.796Z,100732.34
2023-03-29T20:56:15.241Z,100734.50
2023-03-29T20:58:43.752Z,100731.22
2023-03-29T21:01:14.292Z,100716.28
2023-03-29T21:03:42.166Z,100717.88
2023-03-29T21:06:09.533Z,100714.63
2023-03-29T21:08:35.968Z,100722.22
2023-03-29T21:11:03.224Z,100700.47
2023-03-29T21:13:30.029Z,100702.09
2023-03-29T21:15:56.943Z,100698.00
2023-03-29T21:18:23.423Z,100708.88
2023-03-29T21:20:49.779Z,100708.09
2023-03-29T21:23:16.315Z,100710.25
2023-03-29T21:25:43.964Z,100710.25
2023-03-29T21:28:12.116Z,100699.38
2023-03-29T21:30:38.759Z,100697.47
2023-03-29T21:33:05.606Z,100692.03
2023-03-29T21:35:35.612Z,100687.97
2023-03-29T21:38:02.305Z,100676.25
2023-03-29T21:40:28.725Z,100675.19
2023-03-29T21:42:55.317Z,100676.53
2023-03-29T21:45:21.782Z,100678.16
2023-03-29T21:47:48.273Z,100680.34
2023-03-29T21:50:16.109Z,100671.34
2023-03-29T21:52:42.547Z,100671.66
2023-03-29T21:55:13.067Z,100662.41
2023-03-29T21:57:48.901Z,100654.53
2023-03-29T22:00:17.396Z,100644.47
2023-03-29T22:02:45.853Z,100645.00
2023-03-29T22:05:12.425Z,100644.47
2023-03-29T22:07:39.772Z,100653.72
2023-03-29T22:10:12.324Z,100640.72
2023-03-29T22:12:39.600Z,100635.53
2023-03-29T22:15:08.558Z,100632.59
2023-03-29T22:17:36.024Z,100631.50
2023-03-29T22:20:13.799Z,100636.13
2023-03-29T22:22:47.035Z,100638.03
2023-03-29T22:25:13.597Z,100640.75
2023-03-29T22:27:40.297Z,100642.41
2023-03-29T22:30:08.071Z,100641.31
2023-03-29T22:32:34.557Z,100638.88
2023-03-29T22:35:01.098Z,100639.72
2023-03-29T22:37:27.530Z,100636.47
2023-03-29T22:40:01.895Z,100638.66
2023-03-29T22:42:28.361Z,100636.50
2023-03-29T22:44:54.761Z,100629.72
2023-03-29T22:47:22.201Z,100637.59
2023-03-29T22:49:48.666Z,100633.28
2023-03-29T22:52:16.190Z,100630.81
2023-03-29T22:54:43.687Z,100619.44
2023-03-29T22:57:10.125Z,100618.63
2023-03-29T22:59:36.536Z,100610.78
2023-03-29T23:02:03.108Z,100608.31
2023-03-29T23:04:29.781Z,100601.28
2023-03-29T23:07:23.280Z,100613.22
2023-03-29T23:09:50.552Z,100608.88
2023-03-29T23:12:17.063Z,100608.34
2023-03-29T23:14:59.069Z,100596.41
2023-03-29T23:17:25.525Z,100592.38
2023-03-29T23:19:52.942Z,100600.22
2023-03-29T23:22:34.215Z,100598.03
2023-03-29T23:25:11.968Z,100592.03
2023-03-29T23:27:38.374Z,100596.91
2023-03-29T23:30:07.503Z,100591.47
2023-03-29T23:32:33.966Z,100592.00
2023-03-29T23:35:19.545Z,100590.06
2023-03-29T23:38:19.744Z,100577.31
2023-03-29T23:40:58.826Z,100574.03
2023-03-29T23:43:27.234Z,100576.75
2023-03-29T23:45:57.639Z,100562.59
2023-03-29T23:48:30.248Z,100558.78
2023-03-29T23:50:59.657Z,100557.38
2023-03-29T23:53:34.151Z,100562.03
2023-03-29T23:56:03.980Z,100557.38
2023-03-29T23:58:35.940Z,100557.13
